Time;durP1;ratioP1;P1;durP2;ratioP2;P2;SDS_P1;SDS_P2;PMS_P1;PMS_P2;Temp;Humidity;BMP_temperature;BMP_pressure;BME280_temperature;BME280_humidity;BME280_pressure;Samples;Min_cycle;Max_cycle;Signal;HPM_P1;HPM_P2
2022/11/30 05:00:59;;;;;;;36.97;20.70;;;7.50;99.90;;;;;;5774321;23;20866;-73
2022/11/30 05:03:26;;;;;;;34.60;19.10;;;7.50;99.90;;;;;;4968643;28;20441;-72
2022/11/30 05:05:53;;;;;;;21.10;13.90;;;7.50;99.90;;;;;;4968693;28;20964;-72
2022/11/30 05:08:19;;;;;;;28.77;13.77;;;7.50;99.90;;;;;;4969212;28;20984;-72
2022/11/30 05:10:51;;;;;;;25.37;16.20;;;7.50;99.90;;;;;;4968768;28;21039;-72
2022/11/30 05:13:17;;;;;;;22.70;13.37;;;7.50;99.90;;;;;;4968564;28;20440;-72
2022/11/30 05:15:46;;;;;;;22.23;13.83;;;7.50;99.90;;;;;;4968819;28;20467;-72
2022/11/30 05:18:15;;;;;;;21.47;12.87;;;7.50;99.90;;;;;;4968720;28;20461;-72
2022/11/30 05:20:46;;;;;;;24.60;11.77;;;7.50;99.90;;;;;;4967109;28;20484;-72
2022/11/30 05:23:14;;;;;;;22.10;11.30;;;7.50;99.90;;;;;;4967905;28;20912;-72
2022/11/30 05:25:41;;;;;;;18.47;11.03;;;7.50;99.90;;;;;;4968933;28;20460;-72
2022/11/30 05:28:10;;;;;;;18.90;12.17;;;7.50;99.90;;;;;;4969108;28;20468;-67
2022/11/30 05:30:38;;;;;;;18.87;10.70;;;7.60;99.90;;;;;;4968806;28;20979;-68
2022/11/30 05:33:05;;;;;;;18.90;11.30;;;7.60;99.90;;;;;;4967772;28;20487;-68
2022/11/30 05:35:35;;;;;;;19.20;10.60;;;7.50;99.90;;;;;;4968857;28;20468;-67
2022/11/30 05:38:02;;;;;;;20.17;11.80;;;7.50;99.90;;;;;;4968579;28;20799;-68
2022/11/30 05:40:31;;;;;;;20.17;10.60;;;7.50;99.90;;;;;;4968640;28;20461;-77
2022/11/30 05:42:59;;;;;;;18.17;10.90;;;7.50;99.90;;;;;;4968707;28;20535;-76
2022/11/30 05:45:34;;;;;;;22.63;11.97;;;7.60;99.90;;;;;;4969404;28;20467;-76
2022/11/30 05:48:01;;;;;;;16.90;10.50;;;7.50;99.90;;;;;;4969399;28;20463;-76
2022/11/30 05:50:28;;;;;;;19.20;11.10;;;7.50;99.90;;;;;;4969417;28;20455;-76
2022/11/30 05:52:59;;;;;;;23.93;11.17;;;7.60;99.90;;;;;;4968779;28;20468;-77
2022/11/30 05:55:27;;;;;;;21.20;11.83;;;7.60;99.90;;;;;;4969248;28;20444;-77
2022/11/30 05:57:53;;;;;;;24.30;13.50;;;7.60;99.90;;;;;;4969457;28;20475;-76
2022/11/30 06:00:21;;;;;;;27.90;15.87;;;7.60;99.90;;;;;;4969208;28;20453;-76
2022/11/30 06:02:48;;;;;;;25.27;13.20;;;7.60;99.90;;;;;;4968913;28;20500;-76
2022/11/30 06:05:15;;;;;;;19.23;12.00;;;7.60;99.90;;;;;;4968623;28;20452;-77
2022/11/30 06:07:42;;;;;;;22.93;11.60;;;7.50;99.90;;;;;;4970716;28;20457;-76
2022/11/30 06:10:13;;;;;;;19.13;12.20;;;7.50;99.90;;;;;;4969378;28;20831;-76
2022/11/30 06:12:40;;;;;;;20.47;11.57;;;7.50;99.90;;;;;;4968985;28;20461;-76
2022/11/30 06:15:08;;;;;;;21.37;12.50;;;7.50;99.90;;;;;;4969515;28;20463;-77
2022/11/30 06:17:36;;;;;;;20.40;11.13;;;7.50;99.90;;;;;;4969542;28;20820;-76
2022/11/30 06:20:04;;;;;;;21.30;13.10;;;7.50;99.90;;;;;;4968476;28;20457;-77
2022/11/30 06:22:39;;;;;;;23.30;11.40;;;7.50;99.90;;;;;;4968857;28;20506;-77
2022/11/30 06:25:06;;;;;;;21.60;11.80;;;7.50;99.90;;;;;;4969832;28;20445;-76
2022/11/30 06:27:35;;;;;;;22.10;12.07;;;7.50;99.90;;;;;;4968492;28;20463;-76
2022/11/30 06:30:04;;;;;;;21.50;13.43;;;7.50;99.90;;;;;;4968098;28;20464;-77
2022/11/30 06:32:31;;;;;;;24.80;14.07;;;7.50;99.90;;;;;;4967648;28;20480;-76
2022/11/30 06:34:58;;;;;;;22.80;12.03;;;7.50;99.90;;;;;;4969190;28;20475;-75
2022/11/30 06:37:24;;;;;;;27.17;14.70;;;7.50;99.90;;;;;;4968800;28;20457;-76
2022/11/30 06:39:51;;;;;;;28.03;15.63;;;7.50;99.90;;;;;;4968250;28;20453;-76
2022/11/30 06:42:18;;;;;;;31.80;15.50;;;7.50;99.90;;;;;;4967604;28;20496;-76
2022/11/30 06:44:47;;;;;;;27.10;14.93;;;7.50;99.90;;;;;;4967413;28;20944;-76
2022/11/30 06:47:14;;;;;;;28.53;16.27;;;7.50;99.90;;;;;;4966619;28;20452;-76
2022/11/30 06:49:40;;;;;;;25.10;14.90;;;7.50;99.90;;;;;;4966728;28;20457;-76
2022/11/30 06:52:07;;;;;;;25.23;14.17;;;7.50;99.90;;;;;;4968489;28;20472;-78
2022/11/30 06:54:34;;;;;;;28.87;15.50;;;7.50;99.90;;;;;;4969328;28;21067;-77
2022/11/30 06:57:01;;;;;;;24.67;15.27;;;7.50;99.90;;;;;;4969072;28;20452;-77
2022/11/30 06:59:28;;;;;;;34.10;18.07;;;7.50;99.90;;;;;;4969705;28;20461;-78
2022/11/30 07:01:56;;;;;;;32.60;17.20;;;7.50;99.90;;;;;;4968344;28;20591;-76
2022/11/30 07:04:23;;;;;;;32.07;17.27;;;7.40;99.90;;;;;;4969109;28;20547;-76
2022/11/30 07:06:50;;;;;;;32.23;17.10;;;7.40;99.90;;;;;;4969809;28;20496;-76
2022/11/30 07:09:17;;;;;;;42.90;21.57;;;7.40;99.90;;;;;;4969954;28;20460;-78
2022/11/30 07:11:45;;;;;;;36.37;20.27;;;7.40;99.90;;;;;;4968995;28;20684;-76
2022/11/30 07:14:12;;;;;;;33.40;18.43;;;7.40;99.90;;;;;;4968945;28;20456;-77
2022/11/30 07:16:38;;;;;;;33.13;17.57;;;7.40;99.90;;;;;;4969358;28;21248;-77
2022/11/30 07:19:07;;;;;;;36.83;18.87;;;7.30;99.90;;;;;;4968124;28;20467;-76
2022/11/30 07:21:34;;;;;;;36.40;19.57;;;7.30;99.90;;;;;;4968771;28;21011;-76
2022/11/30 07:26:53;;;;;;;41.87;20.03;;;7.30;99.90;;;;;;4933589;28;20449;-77
2022/11/30 07:29:20;;;;;;;41.20;19.83;;;7.30;99.90;;;;;;4968360;28;20464;-76
2022/11/30 07:31:50;;;;;;;36.73;19.77;;;7.30;99.90;;;;;;4967337;28;20475;-77
2022/11/30 07:34:19;;;;;;;38.40;19.83;;;7.30;99.90;;;;;;4968899;28;20506;-77
2022/11/30 07:36:47;;;;;;;39.60;21.10;;;7.30;99.90;;;;;;4960425;28;21012;-76
2022/11/30 07:39:14;;;;;;;40.87;21.00;;;7.30;99.90;;;;;;4958000;28;20463;-77
2022/11/30 07:41:42;;;;;;;41.37;21.83;;;7.30;99.90;;;;;;4959322;28;21063;-77
2022/11/30 07:44:19;;;;;;;37.23;21.77;;;7.30;99.90;;;;;;4957507;28;20441;-77
2022/11/30 07:46:46;;;;;;;41.13;21.50;;;7.30;99.90;;;;;;4958832;28;20449;-76
2022/11/30 07:49:12;;;;;;;42.20;21.37;;;7.30;99.90;;;;;;4958446;28;20449;-77
2022/11/30 07:51:41;;;;;;;38.10;20.77;;;7.30;99.90;;;;;;4959703;28;21000;-77
2022/11/30 07:54:08;;;;;;;45.40;21.27;;;7.30;99.90;;;;;;4958905;28;20477;-77
2022/11/30 07:56:34;;;;;;;42.40;21.27;;;7.30;99.90;;;;;;4962515;28;20971;-77
2022/11/30 07:59:02;;;;;;;46.07;24.37;;;7.40;99.90;;;;;;4964503;28;20465;-76
2022/11/30 08:01:31;;;;;;;42.90;23.87;;;7.40;99.90;;;;;;4962864;28;20483;-75
2022/11/30 08:03:58;;;;;;;53.40;23.40;;;7.40;99.90;;;;;;4961394;28;20523;-77
2022/11/30 08:06:27;;;;;;;42.50;20.67;;;7.50;99.90;;;;;;4962490;28;20461;-77
2022/11/30 08:08:58;;;;;;;39.63;21.30;;;7.50;99.90;;;;;;4962375;28;20882;-77
2022/11/30 08:11:27;;;;;;;43.07;21.83;;;7.50;99.90;;;;;;4956048;28;20481;-77
2022/11/30 08:13:54;;;;;;;39.73;21.53;;;7.50;99.90;;;;;;4951217;28;20454;-76
2022/11/30 08:16:23;;;;;;;38.93;20.67;;;7.50;99.90;;;;;;4951806;29;20449;-76
2022/11/30 08:18:51;;;;;;;40.60;20.03;;;7.50;99.90;;;;;;4951603;29;20461;-76
2022/11/30 08:21:20;;;;;;;47.63;22.13;;;7.60;99.90;;;;;;4951796;29;20488;-77
2022/11/30 08:23:49;;;;;;;38.70;20.47;;;7.60;99.90;;;;;;4951952;29;20599;-77
2022/11/30 08:26:19;;;;;;;43.63;22.30;;;7.60;99.90;;;;;;4951461;28;20492;-76
2022/11/30 08:28:47;;;;;;;39.60;21.27;;;7.70;99.90;;;;;;4952135;29;20441;-76
2022/11/30 08:31:16;;;;;;;41.17;21.63;;;7.70;99.90;;;;;;4951721;28;20993;-77
2022/11/30 08:33:43;;;;;;;47.73;22.70;;;7.60;99.90;;;;;;4951352;28;20462;-77
2022/11/30 08:36:12;;;;;;;38.73;21.77;;;7.60;99.90;;;;;;4951516;29;20454;-76
2022/11/30 08:38:41;;;;;;;38.87;20.60;;;7.60;99.90;;;;;;4951253;29;20973;-76
2022/11/30 08:41:10;;;;;;;35.47;19.93;;;7.70;99.90;;;;;;4951104;29;21011;-77
2022/11/30 08:43:38;;;;;;;34.60;19.10;;;7.60;99.90;;;;;;4951689;28;20837;-76
2022/11/30 08:46:08;;;;;;;42.73;23.50;;;7.70;99.90;;;;;;4953047;28;20464;-76
2022/11/30 08:48:35;;;;;;;38.47;20.57;;;7.70;99.90;;;;;;4954599;29;20462;-77
2022/11/30 08:51:03;;;;;;;33.77;20.03;;;7.70;99.90;;;;;;4954313;29;20481;-77
2022/11/30 08:53:30;;;;;;;35.87;19.47;;;7.80;99.90;;;;;;4953899;29;20457;-76
2022/11/30 08:55:58;;;;;;;31.60;17.80;;;7.70;99.90;;;;;;4955293;29;20463;-76
2022/11/30 08:58:25;;;;;;;39.67;20.20;;;7.80;99.90;;;;;;4954914;29;21021;-76
2022/11/30 09:00:53;;;;;;;35.97;18.87;;;7.70;99.90;;;;;;4954438;29;20487;-76
2022/11/30 09:03:20;;;;;;;37.97;20.20;;;7.70;99.90;;;;;;4954139;29;20497;-77
2022/11/30 09:05:47;;;;;;;32.80;19.37;;;7.70;99.90;;;;;;4954585;29;20468;-77
2022/11/30 09:08:14;;;;;;;35.30;19.30;;;7.80;99.90;;;;;;4952799;29;20850;-76
2022/11/30 09:10:41;;;;;;;31.37;18.60;;;7.70;99.90;;;;;;4953501;29;20483;-77
2022/11/30 09:13:07;;;;;;;41.00;20.73;;;7.70;99.90;;;;;;4951642;28;20449;-77
2022/11/30 09:15:34;;;;;;;35.07;19.60;;;7.70;99.90;;;;;;4950940;29;20457;-76
2022/11/30 09:18:02;;;;;;;36.43;19.60;;;7.70;99.90;;;;;;4951931;29;20472;-77
2022/11/30 09:20:29;;;;;;;36.57;21.20;;;7.80;99.90;;;;;;4952189;29;20809;-76
2022/11/30 09:22:58;;;;;;;35.30;19.20;;;7.80;99.90;;;;;;4951257;28;21284;-76
2022/11/30 09:25:25;;;;;;;35.13;19.90;;;7.80;99.90;;;;;;4951346;29;20460;-77
2022/11/30 09:27:52;;;;;;;34.70;20.23;;;7.80;99.90;;;;;;4951114;29;20461;-77
2022/11/30 09:30:19;;;;;;;33.97;18.97;;;7.80;99.90;;;;;;4950827;29;20457;-77
2022/11/30 09:32:46;;;;;;;35.57;19.70;;;7.80;99.90;;;;;;4949028;28;20463;-75
2022/11/30 09:35:14;;;;;;;36.17;19.50;;;7.80;99.90;;;;;;4950276;29;20457;-76
2022/11/30 09:37:41;;;;;;;32.83;18.80;;;7.80;99.90;;;;;;4949992;29;20457;-76
2022/11/30 09:40:09;;;;;;;40.57;20.10;;;7.80;99.90;;;;;;4949924;28;20464;-77
2022/11/30 09:42:47;;;;;;;36.60;19.50;;;7.80;99.90;;;;;;4949237;28;20501;-76
2022/11/30 09:45:18;;;;;;;34.50;19.73;;;7.80;99.90;;;;;;4949767;29;21506;-76
2022/11/30 09:48:08;;;;;;;36.33;18.93;;;7.80;99.90;;;;;;4949793;28;20454;-76
2022/11/30 09:50:42;;;;;;;29.87;17.83;;;7.80;99.90;;;;;;4950351;29;20473;-75
2022/11/30 09:53:15;;;;;;;34.50;18.87;;;7.70;99.90;;;;;;4949656;29;20445;-76
2022/11/30 09:55:44;;;;;;;32.87;16.93;;;7.80;99.90;;;;;;4950147;29;20807;-76
2022/11/30 09:58:28;;;;;;;33.73;18.37;;;7.80;99.90;;;;;;4949509;28;20461;-76
2022/11/30 10:00:55;;;;;;;31.30;18.33;;;7.70;99.90;;;;;;4949341;29;20488;-76
2022/11/30 10:03:23;;;;;;;31.10;17.37;;;7.80;99.90;;;;;;4948944;29;20493;-76
2022/11/30 10:05:59;;;;;;;31.80;17.77;;;7.80;99.90;;;;;;4949320;29;20831;-76
2022/11/30 10:08:43;;;;;;;32.37;17.20;;;7.80;99.90;;;;;;4950701;29;20460;-77
2022/11/30 10:11:33;;;;;;;32.90;17.07;;;7.80;99.90;;;;;;4949389;29;20996;-76
2022/11/30 10:14:12;;;;;;;24.50;14.63;;;7.80;99.90;;;;;;4949722;29;20463;-77
2022/11/30 10:16:48;;;;;;;27.90;14.53;;;7.90;99.90;;;;;;4950161;29;20461;-76
2022/11/30 10:19:25;;;;;;;26.53;15.03;;;7.90;99.90;;;;;;4948679;28;20449;-77
2022/11/30 10:22:06;;;;;;;23.47;12.73;;;7.90;99.90;;;;;;4950217;28;21185;-77
2022/11/30 10:24:50;;;;;;;22.13;13.93;;;8.00;99.90;;;;;;4951040;29;20492;-79
2022/11/30 10:27:24;;;;;;;20.97;13.23;;;8.00;99.90;;;;;;4950935;29;20453;-77
2022/11/30 10:29:51;;;;;;;20.27;12.50;;;8.00;99.90;;;;;;4950384;29;20453;-77
2022/11/30 10:32:20;;;;;;;22.97;13.20;;;8.00;99.90;;;;;;4949537;29;20486;-75
2022/11/30 10:34:52;;;;;;;20.80;12.43;;;8.00;99.90;;;;;;4949607;28;20877;-75
2022/11/30 10:37:28;;;;;;;20.23;12.23;;;8.10;99.90;;;;;;4949638;29;20460;-75
2022/11/30 10:40:00;;;;;;;24.93;13.90;;;8.10;99.90;;;;;;4949345;29;20445;-75
2022/11/30 10:42:34;;;;;;;19.13;12.50;;;8.10;99.90;;;;;;4948241;29;20492;-75
2022/11/30 10:45:05;;;;;;;20.27;12.60;;;8.10;99.90;;;;;;4949660;29;20441;-75
2022/11/30 10:47:35;;;;;;;18.13;11.63;;;8.10;99.90;;;;;;4949739;29;20449;-76
2022/11/30 10:50:03;;;;;;;17.40;11.57;;;8.10;99.90;;;;;;4949671;29;20540;-75
2022/11/30 10:52:37;;;;;;;16.97;10.23;;;8.20;99.90;;;;;;4948804;28;20478;-75
2022/11/30 10:55:14;;;;;;;21.80;12.63;;;8.20;99.90;;;;;;4950262;28;20464;-76
2022/11/30 10:57:42;;;;;;;19.53;11.43;;;8.20;99.90;;;;;;4950193;29;20552;-74
2022/11/30 11:00:14;;;;;;;19.97;13.13;;;8.20;99.90;;;;;;4949724;28;20472;-75
2022/11/30 11:02:44;;;;;;;19.50;12.43;;;8.20;99.90;;;;;;4949053;29;20457;-75
2022/11/30 11:05:20;;;;;;;17.37;12.20;;;8.30;99.90;;;;;;4949795;28;20465;-76
2022/11/30 11:07:51;;;;;;;19.80;12.53;;;8.30;99.90;;;;;;4949612;29;20464;-76
2022/11/30 11:10:21;;;;;;;18.00;12.90;;;8.30;99.90;;;;;;4949509;29;20537;-76
2022/11/30 11:12:50;;;;;;;19.17;11.90;;;8.40;99.90;;;;;;4948509;29;20472;-76
2022/11/30 11:15:20;;;;;;;19.47;12.33;;;8.30;99.90;;;;;;4949695;29;20464;-76
2022/11/30 11:17:48;;;;;;;21.07;12.60;;;8.20;99.90;;;;;;4949413;29;21467;-76
2022/11/30 11:20:30;;;;;;;20.43;12.30;;;8.20;99.90;;;;;;4949447;29;20468;-75
2022/11/30 11:22:58;;;;;;;19.30;12.13;;;8.20;99.90;;;;;;4948327;29;20658;-78
2022/11/30 11:25:32;;;;;;;18.97;11.10;;;8.20;99.90;;;;;;4949483;29;20457;-76
2022/11/30 11:28:07;;;;;;;18.13;11.90;;;8.20;99.90;;;;;;4949420;29;20451;-75
2022/11/30 11:30:36;;;;;;;16.47;10.30;;;8.30;99.90;;;;;;4949450;28;21478;-77
2022/11/30 11:33:16;;;;;;;20.13;11.40;;;8.20;99.90;;;;;;4948567;29;20518;-77
2022/11/30 11:35:46;;;;;;;16.13;10.37;;;8.20;99.90;;;;;;4948981;28;20455;-75
2022/11/30 11:38:23;;;;;;;17.00;11.13;;;8.20;99.90;;;;;;4948724;29;20958;-76
2022/11/30 11:40:57;;;;;;;17.63;11.40;;;8.20;99.90;;;;;;4949397;28;20508;-76
2022/11/30 11:43:26;;;;;;;21.47;12.50;;;8.20;99.90;;;;;;4948232;29;20478;-76
2022/11/30 11:45:55;;;;;;;20.70;12.10;;;8.20;99.90;;;;;;4948829;29;20464;-76
2022/11/30 11:48:32;;;;;;;19.60;12.00;;;8.20;99.90;;;;;;4948441;29;20467;-75
2022/11/30 11:51:01;;;;;;;19.20;11.87;;;8.20;99.90;;;;;;4948425;29;20484;-75
2022/11/30 11:53:44;;;;;;;18.50;11.23;;;8.20;99.90;;;;;;4948334;29;20481;-76
2022/11/30 11:56:16;;;;;;;21.03;12.20;;;8.30;99.90;;;;;;4948827;29;21021;-76
2022/11/30 11:58:49;;;;;;;22.57;12.20;;;8.20;99.90;;;;;;4949108;28;20833;-76
2022/11/30 12:01:25;;;;;;;24.67;12.57;;;8.20;99.90;;;;;;4948969;29;20597;-75
2022/11/30 12:04:12;;;;;;;24.00;12.87;;;8.20;99.90;;;;;;4948591;29;20477;-75
2022/11/30 12:06:41;;;;;;;20.00;12.57;;;8.10;99.90;;;;;;4949318;29;20806;-75
2022/11/30 12:09:15;;;;;;;21.07;12.87;;;8.10;99.90;;;;;;4949247;29;20974;-75
2022/11/30 12:11:44;;;;;;;21.20;13.03;;;8.20;99.90;;;;;;4947918;29;21295;-77
2022/11/30 12:14:13;;;;;;;20.50;12.13;;;8.20;99.90;;;;;;4948746;28;20540;-75
2022/11/30 12:17:05;;;;;;;20.17;12.30;;;8.20;99.90;;;;;;4948978;29;20449;-76
2022/11/30 12:19:40;;;;;;;18.50;12.43;;;8.20;99.90;;;;;;4949103;29;20436;-76
2022/11/30 12:22:22;;;;;;;17.20;11.33;;;8.20;99.90;;;;;;4948208;29;20508;-77
2022/11/30 12:25:00;;;;;;;19.23;12.50;;;8.20;99.90;;;;;;4948878;29;20515;-77
2022/11/30 12:27:38;;;;;;;23.67;13.60;;;8.20;99.90;;;;;;4948293;29;20457;-77
2022/11/30 12:30:14;;;;;;;21.07;12.60;;;8.20;99.90;;;;;;4948987;29;20452;-76
2022/11/30 12:33:08;;;;;;;22.80;13.23;;;8.20;99.90;;;;;;4948362;29;20496;-75
2022/11/30 12:35:45;;;;;;;19.80;12.50;;;8.20;99.90;;;;;;4949608;29;20445;-75
2022/11/30 12:38:23;;;;;;;23.73;13.90;;;8.30;99.90;;;;;;4949598;28;20445;-76
2022/11/30 12:41:00;;;;;;;22.63;12.53;;;8.30;99.90;;;;;;4949587;28;20477;-76
2022/11/30 12:43:36;;;;;;;20.07;13.50;;;8.30;99.90;;;;;;4953187;29;20501;-75
2022/11/30 12:46:10;;;;;;;22.00;12.87;;;8.40;99.90;;;;;;4952949;29;20464;-76
2022/11/30 12:48:44;;;;;;;25.53;13.87;;;8.40;99.90;;;;;;4953992;28;20453;-76
2022/11/30 12:51:21;;;;;;;25.73;14.73;;;8.40;99.90;;;;;;4953287;29;20500;-75
2022/11/30 12:53:55;;;;;;;22.53;13.67;;;8.40;99.90;;;;;;4953377;29;21188;-76
2022/11/30 12:56:32;;;;;;;21.40;12.77;;;8.40;99.90;;;;;;4952229;29;20936;-75
2022/11/30 12:59:09;;;;;;;23.70;13.90;;;8.50;99.90;;;;;;4951898;29;20437;-76
2022/11/30 13:01:50;;;;;;;20.40;12.60;;;8.50;99.90;;;;;;4951875;28;20496;-76
2022/11/30 13:04:24;;;;;;;23.03;11.97;;;8.50;99.90;;;;;;4949823;29;20483;-76
2022/11/30 13:06:56;;;;;;;22.47;12.90;;;8.50;99.90;;;;;;4950613;29;20457;-75
2022/11/30 13:09:29;;;;;;;21.33;13.40;;;8.50;99.90;;;;;;4949975;29;20937;-76
2022/11/30 13:12:07;;;;;;;25.70;14.83;;;8.50;99.90;;;;;;4950049;29;20492;-76
2022/11/30 13:14:35;;;;;;;23.87;14.33;;;8.60;99.90;;;;;;4950380;29;20449;-76
2022/11/30 13:17:04;;;;;;;22.40;14.07;;;8.60;99.90;;;;;;4950080;29;20467;-76
2022/11/30 13:19:46;;;;;;;28.37;15.53;;;8.60;99.90;;;;;;4950011;28;20457;-75
2022/11/30 13:22:22;;;;;;;27.50;15.30;;;8.60;99.90;;;;;;4949078;28;20569;-75
2022/11/30 13:24:56;;;;;;;25.27;14.47;;;8.60;99.90;;;;;;4949678;29;20831;-76
2022/11/30 13:27:30;;;;;;;24.17;14.23;;;8.60;99.90;;;;;;4950024;29;20559;-75
2022/11/30 13:30:14;;;;;;;28.60;15.37;;;8.60;99.90;;;;;;4949921;28;20461;-76
2022/11/30 13:32:41;;;;;;;23.33;13.70;;;8.60;99.90;;;;;;4950421;29;20437;-76
2022/11/30 13:35:42;;;;;;;26.83;13.93;;;8.60;99.90;;;;;;4950290;28;20997;-76
2022/11/30 13:38:18;;;;;;;22.70;13.60;;;8.60;99.90;;;;;;4950342;28;21233;-75
2022/11/30 13:40:56;;;;;;;23.33;13.80;;;8.60;99.90;;;;;;4950582;29;20473;-75
2022/11/30 13:43:26;;;;;;;30.33;15.50;;;8.50;99.90;;;;;;4949562;29;20786;-76
2022/11/30 13:46:06;;;;;;;27.17;15.20;;;8.50;99.90;;;;;;4950212;29;20454;-75
2022/11/30 13:48:38;;;;;;;22.60;14.07;;;8.60;99.90;;;;;;4950350;29;20958;-75
2022/11/30 13:51:06;;;;;;;30.30;16.87;;;8.60;99.90;;;;;;4949575;29;20857;-76
2022/11/30 13:53:35;;;;;;;27.60;15.50;;;8.50;99.90;;;;;;4950055;28;20480;-76
2022/11/30 13:56:31;;;;;;;28.30;17.17;;;8.50;99.90;;;;;;4951016;28;21072;-76
2022/11/30 13:59:39;;;;;;;26.73;14.93;;;8.50;99.90;;;;;;4950956;29;20463;-75
2022/11/30 14:02:57;;;;;;;30.90;15.80;;;8.50;99.90;;;;;;4949706;29;20521;-76
2022/11/30 14:05:40;;;;;;;30.50;14.80;;;8.50;99.90;;;;;;4934573;28;20520;-75
2022/11/30 14:08:15;;;;;;;24.00;14.60;;;8.50;99.90;;;;;;4948544;28;21162;-77
2022/11/30 14:10:43;;;;;;;27.20;13.97;;;8.40;99.90;;;;;;4950492;28;20863;-75
2022/11/30 14:13:31;;;;;;;24.57;13.97;;;8.40;99.90;;;;;;4950407;29;20449;-75
2022/11/30 14:16:01;;;;;;;24.97;13.97;;;8.40;99.90;;;;;;4950329;29;20812;-76
2022/11/30 14:18:39;;;;;;;25.70;14.53;;;8.40;99.90;;;;;;4950691;29;20807;-76
2022/11/30 14:21:24;;;;;;;27.90;15.13;;;8.40;99.90;;;;;;4950545;29;20477;-76
2022/11/30 14:23:55;;;;;;;30.53;14.97;;;8.40;99.90;;;;;;4949925;28;20449;-75
2022/11/30 14:26:27;;;;;;;29.70;15.50;;;8.40;99.90;;;;;;4949905;29;20775;-76
2022/11/30 14:29:08;;;;;;;31.93;17.13;;;8.40;99.90;;;;;;4950834;29;20440;-77
2022/11/30 14:31:46;;;;;;;31.43;16.90;;;8.30;99.90;;;;;;4953190;28;20473;-76
2022/11/30 14:34:17;;;;;;;28.90;15.60;;;8.40;99.90;;;;;;4969738;28;20464;-76
2022/11/30 14:36:48;;;;;;;30.67;15.80;;;8.40;99.90;;;;;;4969535;28;20444;-77
2022/11/30 14:39:33;;;;;;;27.17;15.77;;;8.40;99.90;;;;;;4969823;28;20457;-76
2022/11/30 14:42:00;;;;;;;28.83;15.40;;;8.40;99.90;;;;;;4968333;28;20480;-76
2022/11/30 14:44:27;;;;;;;29.80;15.30;;;8.40;99.90;;;;;;4968279;28;20507;-76
2022/11/30 14:46:56;;;;;;;30.90;16.40;;;8.40;99.90;;;;;;4969218;28;20567;-76
2022/11/30 14:49:24;;;;;;;28.23;15.73;;;8.40;99.90;;;;;;4969493;28;20548;-76
2022/11/30 14:51:53;;;;;;;25.67;14.40;;;8.40;99.90;;;;;;4968842;28;20469;-77
2022/11/30 14:54:33;;;;;;;28.03;15.73;;;8.40;99.90;;;;;;4969932;28;20459;-76
2022/11/30 14:57:07;;;;;;;24.20;13.90;;;8.40;99.90;;;;;;4970001;28;20896;-76
2022/11/30 14:59:45;;;;;;;29.20;14.93;;;8.40;99.90;;;;;;4970274;28;20447;-78
2022/11/30 15:02:20;;;;;;;29.03;15.50;;;8.40;99.90;;;;;;4968487;28;20479;-77
2022/11/30 15:04:49;;;;;;;27.00;15.60;;;8.40;99.90;;;;;;4969278;28;21288;-77
2022/11/30 15:07:16;;;;;;;23.90;14.60;;;8.40;99.90;;;;;;4969313;28;20459;-77
2022/11/30 15:09:46;;;;;;;21.93;13.20;;;8.40;99.90;;;;;;4969626;28;20484;-77
2022/11/30 15:12:18;;;;;;;28.43;13.30;;;8.40;99.90;;;;;;4968948;28;20488;-77
2022/11/30 15:15:17;;;;;;;23.67;13.60;;;8.40;99.90;;;;;;4969564;28;20449;-76
2022/11/30 15:17:51;;;;;;;19.30;10.67;;;8.30;99.90;;;;;;4969302;28;20925;-77
2022/11/30 15:20:30;;;;;;;17.00;10.90;;;8.30;99.90;;;;;;4968219;28;20444;-76
2022/11/30 15:22:58;;;;;;;16.80;10.20;;;8.20;99.90;;;;;;4968061;28;20461;-78
2022/11/30 15:25:34;;;;;;;15.47;10.17;;;8.20;99.90;;;;;;4968950;28;20528;-77
2022/11/30 15:28:03;;;;;;;16.13;9.17;;;8.10;99.90;;;;;;4968630;28;20436;-76
2022/11/30 15:30:31;;;;;;;14.60;10.70;;;8.10;99.90;;;;;;4968543;28;20461;-76
2022/11/30 15:32:59;;;;;;;16.13;9.90;;;8.10;99.90;;;;;;4967304;28;20491;-76
2022/11/30 15:35:27;;;;;;;15.30;9.83;;;8.10;99.90;;;;;;4968415;28;20456;-76
2022/11/30 15:37:54;;;;;;;13.70;9.03;;;8.10;99.90;;;;;;4967163;28;20511;-77
2022/11/30 15:40:33;;;;;;;14.57;9.13;;;8.10;99.90;;;;;;4966500;28;20556;-76
2022/11/30 15:43:01;;;;;;;15.97;9.90;;;8.00;99.90;;;;;;4967119;28;20467;-76
2022/11/30 15:45:30;;;;;;;15.67;10.00;;;8.10;99.90;;;;;;4967692;28;20492;-76
2022/11/30 15:48:00;;;;;;;16.83;10.80;;;8.00;99.90;;;;;;4967948;28;20456;-77
2022/11/30 15:50:38;;;;;;;16.60;10.80;;;8.00;99.90;;;;;;4967658;28;20539;-76
2022/11/30 15:53:36;;;;;;;18.10;11.20;;;8.10;99.90;;;;;;4966638;28;20456;-76
2022/11/30 15:56:08;;;;;;;16.83;11.13;;;8.10;99.90;;;;;;4926754;29;20457;-76
2022/11/30 15:58:44;;;;;;;17.03;10.43;;;8.00;99.90;;;;;;4960083;28;20502;-76
2022/11/30 16:01:13;;;;;;;16.40;11.50;;;8.00;99.90;;;;;;4967632;28;20912;-75
2022/11/30 16:04:02;;;;;;;16.17;10.60;;;8.00;99.90;;;;;;4966339;28;20472;-73
2022/11/30 16:06:31;;;;;;;16.93;11.40;;;8.00;99.90;;;;;;4966499;28;20465;-73
2022/11/30 16:09:02;;;;;;;26.80;14.00;;;8.00;99.90;;;;;;4966554;28;21027;-73
2022/11/30 16:11:29;;;;;;;16.70;11.97;;;8.00;99.90;;;;;;4966421;28;20475;-73
2022/11/30 16:13:55;;;;;;;19.40;12.27;;;8.00;99.90;;;;;;4965758;28;20809;-73
2022/11/30 16:16:27;;;;;;;17.93;11.90;;;8.00;99.90;;;;;;4967983;28;20493;-73
2022/11/30 16:18:54;;;;;;;19.43;11.50;;;7.90;99.90;;;;;;4970203;28;20503;-73
2022/11/30 16:21:22;;;;;;;16.60;11.67;;;7.90;99.90;;;;;;4970421;28;20852;-73
2022/11/30 16:23:48;;;;;;;17.20;11.13;;;7.90;99.90;;;;;;4969718;28;20463;-74
2022/11/30 16:26:18;;;;;;;16.80;11.00;;;7.90;99.90;;;;;;4969868;28;21016;-74
2022/11/30 16:28:45;;;;;;;17.40;11.40;;;7.80;99.90;;;;;;4970254;28;20457;-74
2022/11/30 16:31:18;;;;;;;19.70;12.73;;;7.80;99.90;;;;;;4969891;28;20992;-74
2022/11/30 16:33:45;;;;;;;19.63;11.90;;;7.80;99.90;;;;;;4969249;28;20456;-74
2022/11/30 16:36:16;;;;;;;17.90;12.37;;;7.80;99.90;;;;;;4969784;28;20449;-74
2022/11/30 16:38:47;;;;;;;17.37;11.90;;;7.80;99.90;;;;;;4970051;28;20455;-73
2022/11/30 16:41:17;;;;;;;19.33;12.70;;;7.70;99.90;;;;;;4969781;28;20494;-74
2022/11/30 16:43:45;;;;;;;21.27;12.80;;;7.80;99.90;;;;;;4968249;28;20961;-73
2022/11/30 16:46:13;;;;;;;19.23;12.03;;;7.70;99.90;;;;;;4969883;28;20488;-73
2022/11/30 16:48:40;;;;;;;23.43;13.70;;;7.70;99.90;;;;;;4970037;28;20459;-74
2022/11/30 16:51:15;;;;;;;20.80;13.07;;;7.70;99.90;;;;;;4969849;28;20492;-74
2022/11/30 16:53:42;;;;;;;22.27;12.30;;;7.70;99.90;;;;;;4969226;28;20442;-74
2022/11/30 16:56:11;;;;;;;20.50;13.00;;;7.70;99.90;;;;;;4969856;28;20459;-72
2022/11/30 16:58:38;;;;;;;20.57;13.67;;;7.70;99.90;;;;;;4969750;28;20949;-71
2022/11/30 17:01:07;;;;;;;21.50;12.70;;;7.60;99.90;;;;;;4969872;28;20495;-72
2022/11/30 17:03:36;;;;;;;22.80;13.80;;;7.60;99.90;;;;;;4969212;28;20456;-73
2022/11/30 17:06:05;;;;;;;20.13;13.33;;;7.60;99.90;;;;;;4969792;28;20525;-74
2022/11/30 17:08:32;;;;;;;19.07;12.33;;;7.60;99.90;;;;;;4970113;28;20452;-72
2022/11/30 17:10:59;;;;;;;20.57;13.27;;;7.60;99.90;;;;;;4967958;28;20480;-72
2022/11/30 17:13:27;;;;;;;21.37;12.40;;;7.50;99.90;;;;;;4969048;28;20440;-72
2022/11/30 17:15:54;;;;;;;23.43;12.90;;;7.50;99.90;;;;;;4969092;28;20461;-72
2022/11/30 17:18:21;;;;;;;21.23;11.67;;;7.50;99.90;;;;;;4969470;28;20794;-72
2022/11/30 17:20:48;;;;;;;22.37;13.63;;;7.50;99.90;;;;;;4969038;28;21020;-74
2022/11/30 17:23:14;;;;;;;22.30;12.10;;;7.50;99.90;;;;;;4968549;28;20456;-74
2022/11/30 17:25:41;;;;;;;20.23;12.00;;;7.50;99.90;;;;;;4969159;28;20542;-74
2022/11/30 17:28:08;;;;;;;23.33;14.10;;;7.50;99.90;;;;;;4968677;28;20462;-74
2022/11/30 17:30:36;;;;;;;21.90;13.67;;;7.50;99.90;;;;;;4968624;28;20472;-71
2022/11/30 17:33:03;;;;;;;24.00;12.97;;;7.40;99.90;;;;;;4968734;28;20480;-74
2022/11/30 17:35:30;;;;;;;25.13;12.17;;;7.30;99.90;;;;;;4969425;28;20452;-74
2022/11/30 17:37:56;;;;;;;25.30;13.27;;;7.30;99.90;;;;;;4969085;28;20457;-72
2022/11/30 17:40:23;;;;;;;22.73;13.47;;;7.30;99.90;;;;;;4969252;28;20487;-71
2022/11/30 17:42:50;;;;;;;23.77;12.80;;;7.20;99.90;;;;;;4968335;28;21163;-72
2022/11/30 17:45:17;;;;;;;22.17;11.93;;;7.20;99.90;;;;;;4968657;28;20503;-72
2022/11/30 17:47:45;;;;;;;24.43;12.17;;;7.20;99.90;;;;;;4969033;28;20463;-71
2022/11/30 17:50:13;;;;;;;21.00;12.37;;;7.20;99.90;;;;;;4968875;28;20458;-71
2022/11/30 17:52:40;;;;;;;21.50;11.23;;;7.30;99.90;;;;;;4968234;28;20897;-72
2022/11/30 17:55:08;;;;;;;28.13;12.67;;;7.20;99.90;;;;;;4968600;28;20820;-72
2022/11/30 17:57:37;;;;;;;24.80;10.33;;;7.10;99.90;;;;;;4968626;28;20456;-72
2022/11/30 18:00:05;;;;;;;21.37;11.60;;;7.10;99.90;;;;;;4968576;28;20788;-72
2022/11/30 18:02:32;;;;;;;20.50;11.60;;;7.10;99.90;;;;;;4967644;28;20900;-72